Time;durP1;ratioP1;P1;durP2;ratioP2;P2;SDS_P1;SDS_P2;PMS_P1;PMS_P2;Temp;Humidity;BMP_temperature;BMP_pressure;BME280_temperature;BME280_humidity;BME280_pressure;Samples;Min_cycle;Max_cycle;Signal;HPM_P1;HPM_P2
2022/03/19 00:00:27;;;;;;;;;;;;;;;7.25;69.26;102963.31;5036843;28;20491;-79
2022/03/19 00:02:53;;;;;;;6.85;3.70;;;;;;;7.24;69.03;102964.28;5035352;28;19913;-78
2022/03/19 00:05:18;;;;;;;8.87;3.53;;;;;;;7.21;69.28;102962.69;5038100;28;20072;-78
2022/03/19 00:07:44;;;;;;;9.68;3.60;;;;;;;7.07;69.93;102960.25;5038711;28;20280;-77
2022/03/19 00:10:10;;;;;;;7.50;3.17;;;;;;;7.12;69.79;102966.09;5035760;28;20372;-77
2022/03/19 00:12:38;;;;;;;;;;;;;;;7.13;69.13;102962.44;5036140;28;20036;-77
2022/03/19 00:15:04;;;;;;;10.93;5.03;;;;;;;7.02;69.80;102961.56;5033824;28;19909;-78
2022/03/19 00:17:30;;;;;;;10.88;3.83;;;;;;;7.03;70.10;102958.78;5034991;28;20456;-76
2022/03/19 00:19:55;;;;;;;10.50;4.30;;;;;;;6.98;70.26;102955.63;5035037;28;20032;-78
2022/03/19 00:22:21;;;;;;;8.80;3.80;;;;;;;7.02;70.01;102957.06;5034079;28;20116;-77
2022/03/19 00:24:46;;;;;;;8.45;3.60;;;;;;;6.90;70.48;102956.19;5035255;28;20719;-79
2022/03/19 00:27:12;;;;;;;11.43;4.32;;;;;;;7.08;69.76;102948.53;5035133;28;20108;-78
2022/03/19 00:29:37;;;;;;;11.30;4.40;;;;;;;7.09;69.54;102941.34;5034942;28;20037;-79
2022/03/19 00:32:03;;;;;;;8.43;3.63;;;;;;;7.09;69.97;102944.03;5033667;28;20044;-77
2022/03/19 00:34:28;;;;;;;8.32;3.65;;;;;;;7.15;69.35;102946.25;5034947;28;20276;-77
2022/03/19 00:36:53;;;;;;;6.53;3.00;;;;;;;7.15;69.78;102946.25;5034630;28;20034;-77
2022/03/19 00:39:19;;;;;;;7.83;4.53;;;;;;;7.14;69.25;102941.84;5034728;28;20284;-78
2022/03/19 00:41:44;;;;;;;9.73;4.05;;;;;;;7.12;69.48;102939.28;5034514;28;20100;-78
2022/03/19 00:44:10;;;;;;;8.60;3.75;;;;;;;7.14;69.94;102931.13;5034830;28;20029;-78
2022/03/19 00:46:35;;;;;;;6.25;3.00;;;;;;;7.17;69.38;102941.59;5034321;28;20384;-77
2022/03/19 00:49:01;;;;;;;6.83;3.53;;;;;;;7.15;69.05;102938.22;5034219;28;20041;-77
2022/03/19 00:51:26;;;;;;;7.28;3.20;;;;;;;6.99;70.05;102933.16;5033129;28;20048;-77
2022/03/19 00:53:52;;;;;;;9.07;3.63;;;;;;;7.09;69.70;102936.84;5033093;28;20487;-76
2022/03/19 00:56:17;;;;;;;7.05;3.17;;;;;;;6.98;70.21;102936.84;5034349;28;20448;-77
2022/03/19 00:58:43;;;;;;;7.90;3.40;;;;;;;7.09;69.22;102933.31;5034345;28;20087;-77
2022/03/19 01:01:08;;;;;;;9.73;4.00;;;;;;;6.89;70.28;102932.19;5033967;28;20396;-78
2022/03/19 01:03:33;;;;;;;6.10;3.27;;;;;;;6.85;70.63;102933.41;5034524;28;20096;-77
2022/03/19 01:05:59;;;;;;;7.57;3.67;;;;;;;6.79;70.77;102936.56;5033584;28;20025;-77
2022/03/19 01:08:24;;;;;;;7.90;3.63;;;;;;;6.74;71.34;102930.72;5034072;28;20453;-77
2022/03/19 01:10:49;;;;;;;10.53;3.63;;;;;;;6.80;71.18;102936.47;5033917;28;20802;-77
2022/03/19 01:13:14;;;;;;;9.77;4.00;;;;;;;6.75;71.39;102935.97;5032774;28;20087;-78
2022/03/19 01:15:40;;;;;;;10.40;3.97;;;;;;;6.86;70.95;102933.28;5034878;28;20033;-78
2022/03/19 01:18:05;;;;;;;9.80;3.50;;;;;;;6.69;71.25;102941.78;5032790;28;20026;-78
2022/03/19 01:20:31;;;;;;;7.97;3.65;;;;;;;6.73;71.56;102937.03;5016395;28;20087;-77
2022/03/19 01:22:57;;;;;;;7.40;3.22;;;;;;;6.58;72.08;102933.72;5034077;28;20544;-77
2022/03/19 01:25:22;;;;;;;10.68;5.03;;;;;;;6.52;72.12;102932.34;5034298;28;20084;-77
2022/03/19 01:27:50;;;;;;;12.00;3.70;;;;;;;6.45;71.99;102936.47;5034323;28;20029;-78
2022/03/19 01:30:17;;;;;;;8.40;3.75;;;;;;;6.39;72.29;102926.22;5033639;28;20116;-77
2022/03/19 01:32:43;;;;;;;13.15;4.60;;;;;;;6.34;72.68;102924.88;5033538;28;20071;-77
2022/03/19 01:35:10;;;;;;;9.60;4.40;;;;;;;6.40;72.83;102927.09;5033952;28;20107;-78
2022/03/19 01:37:36;;;;;;;9.52;4.32;;;;;;;6.33;72.70;102923.16;5033839;28;20034;-77
2022/03/19 01:40:03;;;;;;;8.05;3.97;;;;;;;6.35;72.47;102924.75;5033668;28;20033;-77
2022/03/19 01:42:31;;;;;;;7.60;4.00;;;;;;;6.29;72.91;102930.56;5033783;28;20065;-78
2022/03/19 01:44:59;;;;;;;11.15;4.05;;;;;;;6.30;73.21;102920.72;5016355;28;20065;-78
2022/03/19 01:47:26;;;;;;;9.15;4.25;;;;;;;6.22;73.05;102922.16;5034599;28;20041;-78
2022/03/19 01:49:52;;;;;;;7.03;3.78;;;;;;;6.22;73.57;102923.97;5033441;28;20038;-77
2022/03/19 01:52:18;;;;;;;9.32;3.72;;;;;;;6.24;73.04;102924.72;5034791;28;20029;-79
2022/03/19 01:54:46;;;;;;;9.27;4.13;;;;;;;6.27;72.79;102913.75;5034934;28;20090;-78
2022/03/19 01:57:14;;;;;;;9.70;4.05;;;;;;;6.23;72.77;102921.19;5034817;28;20021;-78
2022/03/19 01:59:40;;;;;;;8.48;3.95;;;;;;;6.25;73.16;102929.97;5033654;28;20461;-79
2022/03/19 02:02:08;;;;;;;8.43;3.53;;;;;;;6.21;73.46;102923.13;5033811;28;20116;-78
2022/03/19 02:04:35;;;;;;;8.68;3.50;;;;;;;6.19;72.82;102919.72;5035953;28;20180;-79
2022/03/19 02:07:01;;;;;;;8.50;3.67;;;;;;;6.18;73.63;102926.03;5037769;28;20045;-77
2022/03/19 02:09:28;;;;;;;8.93;3.90;;;;;;;6.21;72.97;102919.59;5037583;28;20030;-78
2022/03/19 02:11:53;;;;;;;8.68;4.25;;;;;;;6.07;74.06;102917.97;5037622;28;20580;-78
2022/03/19 02:14:19;;;;;;;8.90;3.97;;;;;;;6.03;74.05;102920.97;5037381;28;20112;-79
2022/03/19 02:16:45;;;;;;;12.45;4.53;;;;;;;6.07;74.06;102911.75;5037404;28;20064;-78
2022/03/19 02:19:11;;;;;;;10.27;4.25;;;;;;;6.03;74.08;102911.13;5037562;28;20448;-77
2022/03/19 02:21:44;;;;;;;10.00;3.67;;;;;;;5.96;73.83;102915.22;5036404;28;20044;-77
2022/03/19 02:26:55;;;;;;;8.20;3.75;;;;;;;5.88;74.54;102907.78;5038297;28;20069;-79
2022/03/19 02:29:21;;;;;;;8.52;3.63;;;;;;;5.91;75.07;102912.06;5038039;28;20041;-80
2022/03/19 02:31:49;;;;;;;7.53;3.92;;;;;;;5.96;74.71;102904.50;5038519;28;20038;-78
2022/03/19 02:34:15;;;;;;;8.00;3.90;;;;;;;5.87;75.08;102906.03;5038796;28;20022;-80
2022/03/19 02:36:41;;;;;;;11.02;4.45;;;;;;;5.93;74.66;102908.25;5039539;28;20044;-81
2022/03/19 02:39:13;;;;;;;9.10;4.60;;;;;;;5.87;74.81;102907.84;5037943;28;20412;-78
2022/03/19 02:41:43;;;;;;;12.05;4.68;;;;;;;5.92;74.19;102903.88;5039374;28;20033;-79
2022/03/19 02:44:09;;;;;;;13.55;4.80;;;;;;;5.85;74.85;102902.63;5036939;28;20120;-78
2022/03/19 02:46:40;;;;;;;9.60;4.45;;;;;;;5.80;74.83;102899.41;5038009;28;20377;-78
2022/03/19 02:49:06;;;;;;;8.10;3.65;;;;;;;5.81;75.33;102895.78;5038399;28;20041;-78
2022/03/19 02:51:36;;;;;;;8.60;3.88;;;;;;;5.81;74.90;102894.91;5036418;28;20041;-78
2022/03/19 02:54:04;;;;;;;11.93;4.22;;;;;;;5.77;75.49;102894.28;5037667;28;20472;-79
2022/03/19 02:56:34;;;;;;;8.98;4.05;;;;;;;5.78;74.87;102885.28;5038770;28;20041;-79
2022/03/19 02:59:12;;;;;;;9.50;3.47;;;;;;;5.81;74.96;102890.41;5040919;28;20029;-78
2022/03/19 03:01:39;;;;;;;12.02;4.35;;;;;;;5.71;74.98;102883.19;5042699;28;20040;-79
2022/03/19 03:04:04;;;;;;;11.38;4.05;;;;;;;5.69;75.05;102885.97;5040066;28;20482;-77
2022/03/19 03:06:35;;;;;;;7.55;3.65;;;;;;;5.71;75.54;102883.19;5042980;28;20117;-77
2022/03/19 03:09:00;;;;;;;10.63;4.25;;;;;;;5.81;74.77;102878.88;5042675;28;20041;-78
2022/03/19 03:11:26;;;;;;;10.57;4.38;;;;;;;5.60;75.88;102875.94;5038092;28;20034;-77
2022/03/19 03:13:51;;;;;;;8.93;4.03;;;;;;;5.64;75.87;102866.75;5036280;28;20036;-78
2022/03/19 03:16:17;;;;;;;10.50;4.43;;;;;;;5.60;76.12;102878.63;5036159;28;20139;-78
2022/03/19 03:18:43;;;;;;;7.93;3.92;;;;;;;5.55;75.84;102873.59;5035631;28;20368;-78
2022/03/19 03:21:08;;;;;;;11.63;4.68;;;;;;;5.41;76.33;102867.56;5036672;28;20084;-79
2022/03/19 03:23:34;;;;;;;7.78;3.95;;;;;;;5.40;76.89;102866.72;5037091;28;20419;-77
2022/03/19 03:25:59;;;;;;;10.45;3.88;;;;;;;5.33;77.36;102867.28;5036989;28;20484;-77
2022/03/19 03:28:25;;;;;;;11.70;4.60;;;;;;;5.21;77.57;102861.84;5036717;28;20029;-78
2022/03/19 03:30:50;;;;;;;10.13;4.57;;;;;;;5.14;77.79;102873.94;5036734;28;20057;-78
2022/03/19 03:33:16;;;;;;;13.47;4.63;;;;;;;5.17;77.27;102868.41;5037277;28;20607;-78
2022/03/19 03:35:41;;;;;;;9.93;4.38;;;;;;;5.22;77.56;102865.38;5038254;28;20026;-78
2022/03/19 03:38:07;;;;;;;10.52;4.80;;;;;;;5.14;77.92;102859.72;5052344;28;20029;-80
2022/03/19 03:40:32;;;;;;;12.95;5.28;;;;;;;5.18;77.73;102869.25;5053440;28;20038;-79
2022/03/19 03:42:57;;;;;;;13.60;4.87;;;;;;;5.36;77.47;102864.38;5050071;28;20071;-79
2022/03/19 03:45:23;;;;;;;11.80;5.17;;;;;;;5.23;77.33;102856.38;5044364;28;20272;-79
2022/03/19 03:47:49;;;;;;;11.55;4.93;;;;;;;5.26;77.63;102858.84;5040095;28;20072;-79
2022/03/19 03:50:15;;;;;;;10.65;4.40;;;;;;;5.35;77.70;102860.00;5039987;28;20112;-80
2022/03/19 03:52:41;;;;;;;;;;;;;;;5.27;77.66;102857.03;5039708;28;20060;-79
2022/03/19 03:55:07;;;;;;;10.35;4.28;;;;;;;5.29;77.33;102850.59;5038811;28;20336;-80
2022/03/19 03:57:36;;;;;;;;;;;;;;;5.20;77.76;102854.78;5039124;28;20030;-79
2022/03/19 04:00:03;;;;;;;8.07;4.32;;;;;;;5.28;77.21;102856.06;5041943;28;19913;-79
2022/03/19 04:02:28;;;;;;;8.43;4.78;;;;;;;5.18;77.70;102854.06;5048299;28;20056;-80
2022/03/19 04:04:54;;;;;;;10.13;4.77;;;;;;;5.23;77.59;102848.38;5049536;28;20034;-81
2022/03/19 04:07:19;;;;;;;9.10;3.97;;;;;;;5.11;77.96;102846.59;5038898;28;20077;-78
2022/03/19 04:09:44;;;;;;;11.67;4.63;;;;;;;5.23;77.13;102848.38;5035156;28;20060;-78
2022/03/19 04:12:10;;;;;;;11.77;4.53;;;;;;;5.28;77.81;102848.91;5035023;28;20057;-79
2022/03/19 04:14:36;;;;;;;11.30;4.88;;;;;;;5.20;77.94;102844.09;5036301;28;20029;-78
2022/03/19 04:17:04;;;;;;;9.55;4.13;;;;;;;5.22;77.63;102844.84;5035905;28;20025;-79
2022/03/19 04:19:30;;;;;;;9.50;4.65;;;;;;;5.17;77.48;102849.69;5035683;28;20067;-79
2022/03/19 04:21:55;;;;;;;9.90;4.47;;;;;;;5.27;77.92;102852.53;5035723;28;20061;-77
2022/03/19 04:24:21;;;;;;;9.73;4.38;;;;;;;5.15;78.13;102838.25;5035663;28;20036;-78
2022/03/19 04:26:46;;;;;;;12.07;5.23;;;;;;;5.16;77.76;102845.31;5036021;28;20029;-79
2022/03/19 04:29:11;;;;;;;11.03;4.47;;;;;;;5.08;78.38;102839.63;5035479;28;20268;-78
2022/03/19 04:31:37;;;;;;;9.57;3.97;;;;;;;5.06;78.39;102849.59;5036048;28;20408;-78
2022/03/19 04:34:02;;;;;;;11.87;4.90;;;;;;;5.01;78.77;102840.22;5035573;28;20034;-78
2022/03/19 04:36:30;;;;;;;8.98;4.22;;;;;;;5.13;78.26;102845.50;5035338;28;20033;-78
2022/03/19 04:39:01;;;;;;;8.80;4.22;;;;;;;5.11;77.97;102850.13;5035036;28;20117;-78
2022/03/19 04:41:27;;;;;;;12.73;4.35;;;;;;;4.92;79.25;102851.53;5035217;28;20104;-78
2022/03/19 04:43:52;;;;;;;12.73;5.30;;;;;;;5.05;78.78;102855.88;5035164;28;20499;-78
2022/03/19 04:46:18;;;;;;;8.40;4.10;;;;;;;5.02;78.60;102842.75;5035213;28;20060;-78
2022/03/19 04:48:45;;;;;;;14.38;4.82;;;;;;;4.96;78.38;102848.53;5035378;28;20104;-78
2022/03/19 04:51:16;;;;;;;9.48;4.35;;;;;;;5.03;78.32;102841.78;5034943;28;20038;-78
2022/03/19 04:53:42;;;;;;;9.05;4.18;;;;;;;4.93;78.59;102835.41;5035219;28;20376;-78
2022/03/19 04:56:07;;;;;;;10.35;4.68;;;;;;;4.94;78.60;102837.09;5033884;28;20033;-78
2022/03/19 04:58:33;;;;;;;8.05;3.95;;;;;;;4.95;78.98;102843.31;5034892;28;20033;-78
2022/03/19 05:00:59;;;;;;;9.15;4.50;;;;;;;4.89;78.89;102840.09;5035066;28;20029;-78
2022/03/19 05:03:26;;;;;;;13.43;5.28;;;;;;;4.94;79.07;102837.09;5035003;28;20112;-79
2022/03/19 05:05:51;;;;;;;9.95;4.40;;;;;;;4.84;79.07;102836.88;5034598;28;20030;-78
2022/03/19 05:08:17;;;;;;;10.93;4.43;;;;;;;4.89;78.77;102841.91;5035394;28;20030;-78
2022/03/19 05:13:27;;;;;;;9.55;4.35;;;;;;;4.84;79.13;102838.72;5035756;28;20040;-78
2022/03/19 05:15:53;;;;;;;9.68;4.93;;;;;;;4.73;79.95;102838.63;5035903;28;20030;-78
2022/03/19 05:18:19;;;;;;;9.88;4.70;;;;;;;4.73;79.89;102846.63;5036651;28;20061;-79
2022/03/19 05:20:45;;;;;;;;;;;;;;;4.71;79.73;102846.75;5036377;28;20021;-78
2022/03/19 05:23:10;;;;;;;9.95;4.57;;;;;;;4.73;80.09;102844.81;5018784;28;19920;-78
2022/03/19 05:25:36;;;;;;;13.53;4.93;;;;;;;4.72;79.49;102850.25;5035565;28;20048;-79
2022/03/19 05:28:01;;;;;;;11.85;4.90;;;;;;;4.72;79.67;102836.91;5033999;28;20633;-79
2022/03/19 05:30:26;;;;;;;11.98;5.00;;;;;;;4.65;80.03;102846.34;5035231;28;20041;-78
2022/03/19 05:32:52;;;;;;;10.77;4.80;;;;;;;4.72;79.75;102845.78;5034900;28;20029;-80
2022/03/19 05:35:18;;;;;;;10.57;4.47;;;;;;;4.68;80.22;102838.94;5034520;28;20044;-78
2022/03/19 05:37:44;;;;;;;11.10;4.45;;;;;;;4.65;80.35;102843.66;5034063;28;20025;-79
2022/03/19 05:40:10;;;;;;;11.00;5.38;;;;;;;4.80;79.93;102843.44;5033806;28;20084;-77
2022/03/19 05:42:36;;;;;;;10.45;5.55;;;;;;;4.68;80.35;102854.09;5034030;28;20083;-78
2022/03/19 05:45:02;;;;;;;10.05;4.72;;;;;;;4.66;80.22;102854.22;5034579;28;20376;-77
2022/03/19 05:47:27;;;;;;;;;;;;;;;4.63;80.69;102846.44;5033942;28;20025;-79
2022/03/19 05:49:53;;;;;;;9.82;5.05;;;;;;;4.68;80.40;102846.94;5032653;28;19909;-77
2022/03/19 05:52:18;;;;;;;12.23;4.77;;;;;;;4.71;79.98;102846.75;5034080;28;20030;-78
2022/03/19 05:54:43;;;;;;;10.85;4.93;;;;;;;4.65;80.65;102849.00;5034751;28;20028;-80
2022/03/19 05:57:09;;;;;;;11.60;4.93;;;;;;;4.64;80.53;102848.16;5035074;28;20120;-78
2022/03/19 05:59:34;;;;;;;9.95;4.32;;;;;;;4.65;80.81;102849.00;5034280;28;20029;-79
2022/03/19 06:02:00;;;;;;;11.57;4.53;;;;;;;4.73;80.44;102846.63;5037244;28;20029;-78
2022/03/19 06:04:25;;;;;;;15.73;6.30;;;;;;;4.61;81.36;102842.16;5038093;28;20025;-80
2022/03/19 06:06:51;;;;;;;11.75;4.57;;;;;;;4.72;80.70;102843.09;5039988;28;20468;-78
2022/03/19 06:09:16;;;;;;;12.27;5.03;;;;;;;4.76;80.29;102851.75;5041360;28;20043;-77
2022/03/19 06:11:44;;;;;;;14.70;5.72;;;;;;;4.74;80.33;102848.34;5038863;28;20534;-78
2022/03/19 06:14:09;;;;;;;12.88;5.35;;;;;;;4.82;80.42;102852.19;5036013;28;20479;-79
2022/03/19 06:16:35;;;;;;;10.90;5.60;;;;;;;4.82;80.01;102848.69;5035698;28;20029;-79
2022/03/19 06:19:00;;;;;;;13.13;5.43;;;;;;;4.81;80.29;102850.50;5018433;28;20025;-79
2022/03/19 06:21:26;;;;;;;11.38;5.45;;;;;;;4.85;80.35;102848.44;5036733;28;20057;-79
2022/03/19 06:23:52;;;;;;;12.98;5.50;;;;;;;4.78;80.21;102850.69;5036230;28;20392;-80
2022/03/19 06:26:20;;;;;;;15.70;5.53;;;;;;;4.74;80.65;102848.34;5036230;28;20029;-82
2022/03/19 06:28:45;;;;;;;9.98;4.35;;;;;;;4.79;80.23;102854.22;5034431;28;20041;-80
2022/03/19 06:31:11;;;;;;;9.98;4.47;;;;;;;4.84;80.18;102849.38;5034410;28;20124;-78
2022/03/19 06:33:40;;;;;;;10.43;4.82;;;;;;;4.80;80.38;102854.13;5033464;28;20061;-76
2022/03/19 06:38:50;;;;;;;16.13;5.40;;;;;;;4.81;80.56;102852.31;5033809;28;20064;-77
2022/03/19 06:41:15;;;;;;;15.32;5.18;;;;;;;4.90;79.63;102854.31;5034033;28;20030;-79
2022/03/19 06:43:40;;;;;;;10.97;5.00;;;;;;;4.93;80.17;102854.09;5033981;28;20037;-78
2022/03/19 06:46:06;;;;;;;13.00;5.57;;;;;;;4.86;80.16;102850.13;5033686;28;20025;-78
2022/03/19 06:48:31;;;;;;;12.63;4.97;;;;;;;4.97;79.98;102854.75;5033298;28;20275;-78
2022/03/19 06:50:57;;;;;;;14.60;6.33;;;;;;;5.15;79.33;102853.44;5034438;28;20034;-77
2022/03/19 06:53:23;;;;;;;16.73;5.25;;;;;;;5.24;79.10;102852.75;5037414;28;20028;-78
2022/03/19 06:55:50;;;;;;;14.20;5.50;;;;;;;5.22;78.92;102854.66;5037558;28;20041;-77
2022/03/19 06:58:16;;;;;;;17.05;5.80;;;;;;;5.19;78.70;102847.75;5035703;28;20033;-77
2022/03/19 07:00:41;;;;;;;11.43;4.82;;;;;;;5.22;79.00;102849.31;5036244;28;20026;-77
2022/03/19 07:03:07;;;;;;;12.65;5.18;;;;;;;5.22;78.63;102843.97;5036244;28;20108;-76
2022/03/19 07:05:33;;;;;;;;;;;;;;;5.38;78.23;102844.56;5036434;28;20083;-77
2022/03/19 07:08:00;;;;;;;11.98;4.50;;;;;;;5.36;78.20;102846.53;5036678;28;19925;-77
2022/03/19 07:10:26;;;;;;;9.25;4.40;;;;;;;5.35;78.42;102842.16;5036492;28;20043;-78
2022/03/19 07:12:55;;;;;;;14.45;5.22;;;;;;;5.42;78.26;102845.22;5036646;28;20037;-77
2022/03/19 07:15:29;;;;;;;11.18;4.72;;;;;;;5.38;77.71;102839.22;5037801;28;20450;-80
2022/03/19 07:17:55;;;;;;;12.63;5.80;;;;;;;5.34;77.71;102844.94;5035036;28;20039;-76
2022/03/19 07:20:21;;;;;;;11.05;4.57;;;;;;;5.49;77.98;102843.81;5036459;28;20084;-80
2022/03/19 07:22:48;;;;;;;11.65;4.53;;;;;;;5.56;77.61;102840.53;5036331;28;20033;-78
2022/03/19 07:25:14;;;;;;;18.27;5.28;;;;;;;5.69;77.16;102845.88;5036300;28;20538;-78
2022/03/19 07:27:40;;;;;;;10.32;4.55;;;;;;;5.65;76.90;102847.06;5036205;28;20033;-77
2022/03/19 07:30:06;;;;;;;14.97;4.53;;;;;;;5.87;75.93;102836.47;5034766;28;20200;-77
2022/03/19 07:32:31;;;;;;;14.63;4.72;;;;;;;5.91;76.04;102835.28;5035562;28;20079;-76
2022/03/19 07:34:56;;;;;;;8.68;4.68;;;;;;;5.96;76.05;102837.59;5036045;28;20099;-73
2022/03/19 07:37:22;;;;;;;9.80;4.60;;;;;;;6.07;75.35;102834.13;5035371;28;20040;-73
2022/03/19 07:39:47;;;;;;;9.87;3.33;;;;;;;6.16;74.77;102834.28;5033960;28;20194;-72
2022/03/19 07:42:12;;;;;;;10.43;3.97;;;;;;;6.18;74.92;102839.50;5035187;28;20037;-72
2022/03/19 07:44:37;;;;;;;8.60;4.10;;;;;;;6.11;74.92;102843.63;5035386;28;20072;-73
2022/03/19 07:47:03;;;;;;;8.17;4.37;;;;;;;6.32;74.40;102833.09;5035052;28;20033;-72
2022/03/19 07:49:29;;;;;;;10.93;4.55;;;;;;;6.32;73.98;102843.81;5035630;28;20068;-72
2022/03/19 07:51:55;;;;;;;9.25;4.10;;;;;;;6.44;74.03;102841.06;5034979;28;20431;-72
2022/03/19 07:54:27;;;;;;;7.97;4.30;;;;;;;6.55;73.80;102829.50;5035256;28;20368;-73
2022/03/19 07:56:53;;;;;;;12.38;3.92;;;;;;;6.55;73.06;102835.69;5033866;28;20025;-72
2022/03/19 07:59:19;;;;;;;10.38;4.03;;;;;;;6.62;73.08;102836.09;5035448;28;20120;-72
2022/03/19 08:01:44;;;;;;;11.23;4.53;;;;;;;6.60;72.93;102830.00;5034468;28;20040;-72
2022/03/19 08:04:10;;;;;;;13.05;4.70;;;;;;;6.68;73.05;102829.38;5035170;28;20026;-72
2022/03/19 08:06:36;;;;;;;11.73;4.57;;;;;;;6.66;72.66;102823.28;5034864;28;20128;-73
2022/03/19 08:09:02;;;;;;;9.00;3.97;;;;;;;6.80;72.37;102823.91;5034919;28;20037;-72
2022/03/19 08:11:28;;;;;;;9.38;4.05;;;;;;;6.96;72.03;102827.06;5035115;28;20033;-72
2022/03/19 08:13:53;;;;;;;12.32;4.25;;;;;;;7.00;72.01;102833.00;5034470;28;20109;-72
2022/03/19 08:16:19;;;;;;;12.97;4.10;;;;;;;7.14;71.08;102831.94;5033538;28;20114;-73
2022/03/19 08:18:45;;;;;;;10.57;4.33;;;;;;;7.10;70.82;102825.97;5034405;28;20025;-73
2022/03/19 08:21:10;;;;;;;8.35;3.63;;;;;;;7.24;70.92;102830.19;5033320;28;20407;-72
2022/03/19 08:23:35;;;;;;;9.68;4.15;;;;;;;7.26;70.62;102829.09;5033347;28;20480;-72
2022/03/19 08:26:01;;;;;;;15.93;3.58;;;;;;;7.47;69.87;102831.00;5034850;28;20034;-72
2022/03/19 08:28:27;;;;;;;8.15;3.22;;;;;;;7.41;69.83;102835.03;5033358;28;20037;-74
2022/03/19 08:30:53;;;;;;;10.02;3.38;;;;;;;7.39;69.98;102842.34;5034515;28;20377;-72
2022/03/19 08:33:18;;;;;;;11.30;3.72;;;;;;;7.49;69.71;102829.91;5034270;28;20045;-73
2022/03/19 08:35:43;;;;;;;9.60;3.40;;;;;;;7.57;69.20;102835.47;5034101;28;20036;-73
2022/03/19 08:40:53;;;;;;;10.02;3.15;;;;;;;7.71;68.17;102845.06;5033808;28;20041;-75
2022/03/19 08:43:18;;;;;;;15.75;3.83;;;;;;;7.76;67.64;102845.53;5034072;28;20037;-74
2022/03/19 08:45:44;;;;;;;6.57;3.53;;;;;;;7.77;67.43;102841.88;5034060;28;20029;-73
2022/03/19 08:48:09;;;;;;;9.07;2.87;;;;;;;8.02;66.24;102822.75;5034003;28;20109;-73
2022/03/19 08:50:35;;;;;;;6.28;2.58;;;;;;;8.08;65.42;102828.56;5033828;28;20264;-72
2022/03/19 08:53:00;;;;;;;8.23;3.15;;;;;;;8.05;65.49;102826.16;5033972;28;20033;-73
2022/03/19 08:55:25;;;;;;;11.82;4.03;;;;;;;8.21;64.42;102826.56;5034057;28;20087;-73
2022/03/19 08:57:51;;;;;;;6.65;2.85;;;;;;;8.20;63.70;102830.22;5033662;28;20034;-73
2022/03/19 09:00:17;;;;;;;5.78;2.85;;;;;;;8.16;63.26;102818.03;5032639;28;20443;-72
2022/03/19 09:02:43;;;;;;;11.38;3.58;;;;;;;8.44;62.79;102821.91;5032721;28;20541;-74
2022/03/19 09:05:09;;;;;;;5.78;2.50;;;;;;;8.32;62.45;102824.69;5033757;28;20502;-74
2022/03/19 09:07:34;;;;;;;6.13;2.50;;;;;;;8.52;62.46;102812.22;5034243;28;20049;-73
2022/03/19 09:10:00;;;;;;;7.85;2.80;;;;;;;8.61;61.09;102811.41;5032612;28;20033;-74
2022/03/19 09:12:26;;;;;;;9.20;3.92;;;;;;;8.88;60.71;102801.91;5034147;28;20361;-74
2022/03/19 09:14:53;;;;;;;5.88;2.50;;;;;;;9.02;59.15;102809.59;5033139;28;20033;-74
2022/03/19 09:17:19;;;;;;;7.85;2.95;;;;;;;8.91;59.04;102801.66;5033415;28;20037;-75
2022/03/19 09:19:45;;;;;;;4.70;2.30;;;;;;;8.95;59.48;102805.78;5031458;28;20056;-74
2022/03/19 09:22:10;;;;;;;6.82;2.60;;;;;;;8.88;58.63;102799.22;5032281;28;20064;-73
2022/03/19 09:24:36;;;;;;;6.57;2.97;;;;;;;8.88;58.24;102789.31;5033598;28;20060;-73
2022/03/19 09:27:02;;;;;;;5.78;2.40;;;;;;;9.02;57.50;102790.78;5033784;28;20269;-73
2022/03/19 09:29:27;;;;;;;;;;;;;;;9.07;57.52;102791.22;5034361;28;20041;-77
2022/03/19 09:31:53;;;;;;;9.55;2.90;;;;;;;9.09;57.36;102800.00;5033581;28;19915;-77
2022/03/19 09:34:18;;;;;;;6.78;2.47;;;;;;;9.38;56.77;102800.91;5033639;28;20034;-77
2022/03/19 09:36:47;;;;;;;6.30;2.40;;;;;;;9.42;55.05;102781.81;5032965;28;20045;-77
2022/03/19 09:39:14;;;;;;;4.95;2.10;;;;;;;9.50;54.89;102798.06;5034040;28;20294;-77
2022/03/19 09:41:43;;;;;;;6.35;2.58;;;;;;;9.31;55.52;102790.88;5034382;28;20099;-77
2022/03/19 09:44:11;;;;;;;5.50;2.28;;;;;;;9.35;55.69;102781.50;5034514;28;20030;-77
2022/03/19 09:46:37;;;;;;;5.10;2.05;;;;;;;9.49;53.95;102773.03;5033701;28;20064;-77
2022/03/19 09:49:03;;;;;;;;;;;;;;;9.54;53.77;102764.53;5034964;28;20029;-78
2022/03/19 09:51:32;;;;;;;6.30;2.50;;;;;;;9.66;52.64;102766.97;5033432;28;19912;-77
2022/03/19 09:53:57;;;;;;;6.75;2.15;;;;;;;9.57;51.48;102765.09;5032328;28;20032;-77
2022/03/19 09:56:23;;;;;;;3.97;1.67;;;;;;;9.60;51.19;102761.28;5032395;28;20114;-77
2022/03/19 09:58:48;;;;;;;8.75;1.80;;;;;;;9.67;51.46;102770.50;5033227;28;20041;-78
2022/03/19 10:01:18;;;;;;;5.03;2.30;;;;;;;9.94;50.63;102757.16;5033114;28;20041;-78
2022/03/19 10:03:44;;;;;;;5.22;1.83;;;;;;;10.18;49.37;102770.16;5033230;28;20033;-72
2022/03/19 10:08:59;;;;;;;4.10;1.40;;;;;;;10.10;48.36;102759.25;5032762;28;20542;-75
2022/03/19 10:11:33;;;;;;;4.32;1.70;;;;;;;9.94;47.71;102754.44;5034648;28;20101;-79
2022/03/19 10:13:59;;;;;;;4.28;1.65;;;;;;;10.13;46.93;102756.25;5035168;28;20034;-79
2022/03/19 10:16:28;;;;;;;6.57;1.80;;;;;;;10.12;45.60;102749.16;5034975;28;20029;-78
2022/03/19 10:19:06;;;;;;;7.15;1.60;;;;;;;10.04;45.64;102747.19;5033051;28;20117;-79
2022/03/19 10:21:36;;;;;;;3.15;1.30;;;;;;;10.03;43.90;102736.59;5033169;28;20087;-81
2022/03/19 10:24:01;;;;;;;3.92;1.25;;;;;;;10.17;42.92;102740.66;5035892;28;20112;-78
2022/03/19 10:26:34;;;;;;;4.75;1.83;;;;;;;10.30;42.49;102738.53;5038264;28;20112;-78
2022/03/19 10:29:04;;;;;;;5.03;1.50;;;;;;;10.27;42.06;102738.81;5038080;28;20041;-78
2022/03/19 10:31:39;;;;;;;5.97;2.10;;;;;;;10.12;41.47;102738.41;5038564;28;20041;-80
2022/03/19 10:34:06;;;;;;;12.68;2.00;;;;;;;10.32;41.93;102733.84;5037149;28;20057;-76
2022/03/19 10:36:42;;;;;;;6.15;1.48;;;;;;;10.52;40.98;102743.56;5036297;28;20030;-74
2022/03/19 10:39:18;;;;;;;5.65;1.48;;;;;;;10.46;39.61;102735.19;5036388;28;20033;-74
2022/03/19 10:41:44;;;;;;;4.38;1.42;;;;;;;10.31;40.40;102738.38;5034830;28;20082;-73
2022/03/19 10:44:16;;;;;;;4.20;1.40;;;;;;;10.38;37.93;102726.03;5036388;28;20128;-74
2022/03/19 10:46:50;;;;;;;3.83;1.38;;;;;;;10.47;37.58;102712.63;5035933;28;20127;-73
2022/03/19 10:49:18;;;;;;;2.90;1.02;;;;;;;10.54;36.94;102709.22;5036494;28;20487;-73
2022/03/19 10:51:45;;;;;;;6.07;0.95;;;;;;;10.80;34.56;102706.66;5035865;28;20041;-74
2022/03/19 10:54:12;;;;;;;4.43;0.88;;;;;;;10.64;34.80;102709.16;5036141;28;20040;-75
2022/03/19 10:56:38;;;;;;;2.70;0.90;;;;;;;10.54;34.10;102709.22;5034764;28;20030;-73
2022/03/19 10:59:03;;;;;;;2.97;0.93;;;;;;;10.64;33.02;102692.97;5035713;28;20380;-73
2022/03/19 11:01:32;;;;;;;3.35;0.95;;;;;;;10.94;32.96;102698.03;5035800;28;20491;-74
2022/03/19 11:04:01;;;;;;;4.60;2.05;;;;;;;10.86;32.08;102684.47;5035771;28;20087;-75
2022/03/19 11:06:29;;;;;;;3.85;1.00;;;;;;;10.82;32.84;102688.47;5035556;28;20045;-75
2022/03/19 11:08:55;;;;;;;4.05;0.82;;;;;;;10.91;31.52;102681.34;5035983;28;20095;-74
2022/03/19 11:11:33;;;;;;;3.50;0.85;;;;;;;11.14;31.52;102671.78;5036001;28;20451;-73
2022/03/19 11:14:02;;;;;;;3.58;0.98;;;;;;;11.29;32.44;102672.94;5035552;28;20029;-76
2022/03/19 11:16:32;;;;;;;1.77;0.75;;;;;;;11.06;32.31;102658.22;5018062;28;20033;-74
2022/03/19 11:19:00;;;;;;;2.63;0.93;;;;;;;11.20;33.84;102649.59;5035903;28;20033;-75
2022/03/19 11:21:26;;;;;;;5.35;1.10;;;;;;;11.32;32.88;102656.44;5034682;28;20480;-74
2022/03/19 11:24:06;;;;;;;3.13;0.80;;;;;;;11.04;32.70;102650.28;5035575;28;20048;-75
2022/03/19 11:26:32;;;;;;;3.67;0.95;;;;;;;11.12;32.79;102646.78;5035664;28;20083;-74
2022/03/19 11:28:57;;;;;;;;;;;;;;;11.06;29.85;102636.63;5035776;28;20107;-75
2022/03/19 11:31:28;;;;;;;2.15;0.70;;;;;;;11.26;30.28;102632.78;5035486;28;19931;-73
2022/03/19 11:33:59;;;;;;;2.40;0.60;;;;;;;11.55;29.55;102626.25;5035420;28;20110;-73
2022/03/19 11:36:24;;;;;;;2.47;0.60;;;;;;;11.23;29.72;102633.09;5033479;28;20476;-73
2022/03/19 11:38:52;;;;;;;2.20;0.68;;;;;;;11.18;30.13;102626.44;5035121;28;20029;-73
2022/03/19 11:41:22;;;;;;;2.53;0.90;;;;;;;11.35;31.17;102617.50;5035181;28;20214;-73